TNCM

Princess Juliana International Airport

Philipsburg, , Netherlands Antilles
TNCM 210540Z 2106/2206 09012KT P6SM VCSH SCT020
Issued Valid From Valid To
Apr-21 @ 05:40 UTC
(4 hours ago)
Apr-21 @ 06:00 UTC
(3 hours ago)
Apr-22 @ 06:00 UTC
(in 21 hours)
Apr-21 @ 06:00 to Apr-22 @ 06:00
TNCM 210540Z 2106/2206 09012KT P6SM VCSH SCT020
Wind Visibility Clouds
90° at 12 knots 10,000+ meters
  • Scattered at 2,000' AGL
TNCM 210540Z 2106/2206 09012KT P6SM VCSH SCT020
Issued Apr-21 @ 05:40 UTC
(4 hours ago)
Valid From Apr-21 @ 06:00 UTC
(3 hours ago)
Valid To Apr-22 @ 06:00 UTC
(in 21 hours)
Apr-21 @ 06:00 - Apr-22 @ 06:00
Wind Visibility
90° at 12 knots 10,000+ meters
Clouds
  • Scattered at 2,000' AGL